Skip to main content

NOAA/GLERL Met Station at Michigan City, IN

Previous 5 days (top of hour only)
See also Previous 3 Hours (2 minute increments)
Jump down to Data
Switch to [English][Metric]
Zoom: Click and drag, Pan: shift-click and drag, Unzoom: double-click, Unzoom All




Note: Speed = mean wind during 2-minute period at top of hour,
Gust = max wind during 2-minute period at top of hour,
Peak = max wind during entire hour.
• See also 5-day windrose plot


NOAA/GLERL Met Station at Michigan City, IN

Previous 5 days (top of hour only)
See also Previous 3 Hours (2 minute increments)
Jump up to Graphs
Switch to [English][Metric]
                  Wind  Wind  Wind   Air   Dew   Rel     Sta   PAR
                   Spd   Gst   Dir  Temp    Pt   Hum    Pres uE/m2/
YYYY-MM-DD   CST   kts   kts   deg     F     F     %   in Hg   sec
2017-11-18 16:00  36.9  40.0   338  42.8  38.8  85.6    0.00     0
2017-11-18 15:00  37.9  41.8   333  43.3  39.2  85.1    0.00     0
2017-11-18 14:00  36.7  41.6   337  42.8  39.1  86.7    0.00     0
2017-11-18 13:00  32.9  35.2   360  43.2  39.6  87.2    0.00     0
2017-11-18 12:00  32.3  36.0     5  44.4  41.3  88.7    0.00     0
2017-11-18 11:00  26.0  29.4     1  44.6  44.2  98.6    0.00     0
2017-11-18 10:00  26.4  28.8     2  45.1  46.1 103.8    0.00     0
2017-11-18 09:00  22.6  24.1    19  45.5  47.1 106.1    0.00     0
2017-11-18 08:00   5.8   6.2    40  45.0  46.6 106.3    0.00     0
2017-11-18 07:00   1.6   1.9    55  44.8  46.3 106.1    0.00     0
2017-11-18 06:00   1.7   2.3    36  45.1  46.7 106.1    0.00     0
2017-11-18 05:00   5.2   5.6   138  44.2  45.8 106.1    0.00     0
2017-11-18 04:00   3.9   4.3   118  44.1  45.6 106.0    0.00     0
2017-11-18 03:00   3.7   3.9   118  44.1  45.5 105.7    0.00     0
2017-11-18 02:00   2.7   2.7    56  44.2  45.5 104.9    0.00     0
2017-11-18 01:00   5.4   6.0   187  44.1  45.0 103.6    0.00     0
2017-11-18 00:00   8.4  10.1   188  43.9  44.3 101.5    0.00     0
2017-11-17 23:00  11.9  13.4   164  43.3  43.0  98.7    0.00     0
2017-11-17 22:00  10.9  12.8   168  42.4  39.8  90.3    0.00     0
2017-11-17 21:00  15.7  19.1   160  42.3  38.5  86.2    0.00     0
2017-11-17 20:00  15.6  18.9   148  42.1  37.9  85.1    0.00     0
2017-11-17 19:00  19.2  22.9   139  41.9  37.7  84.8    0.00     0
2017-11-17 18:00  17.7  21.2   136  45.5  32.5  60.0    0.00     0
2017-11-17 17:00  18.1  21.4   138  44.8  32.8  62.4    0.00     0
2017-11-17 16:00  13.0  16.7   145  43.7  33.1  65.9    0.00     0
2017-11-17 15:00  13.6  17.1   140  44.6  31.2  58.9    0.00     0
2017-11-17 14:00  15.9  19.1   147  44.4  31.0  58.8    0.00     0
2017-11-17 13:00  18.5  22.0   148  43.3  30.5  60.1    0.00     0
2017-11-17 12:00  14.6  20.2   141  42.3  30.5  62.8    0.00     0
2017-11-17 11:00  16.7  22.2   129  40.3  30.3  67.3    0.00     0
2017-11-17 10:00  16.5  20.8   144  37.8  30.7  75.3    0.00     0
2017-11-17 09:00  13.4  16.5   128  36.7  30.2  77.2    0.00     0
2017-11-17 08:00  16.3  22.9   151  35.6  30.1  80.2    0.00     0
2017-11-17 07:00  12.1  15.0   137  35.2  29.8  80.2    0.00     0
2017-11-17 06:00  10.1  13.4   153  35.4  29.6  79.0    0.00     0
2017-11-17 05:00  12.6  16.3   142  35.4  29.6  79.0    0.00     0
2017-11-17 04:00   8.7  10.3   168  35.4  28.7  76.3    0.00     0
2017-11-17 03:00   6.6   8.6   136  35.6  28.6  75.3    0.00     0
2017-11-17 02:00   6.0   7.2   142  36.1  28.7  74.1    0.00     0
2017-11-17 01:00   4.9   5.8   143  36.7  29.5  74.8    0.00     0
2017-11-17 00:00   7.0   8.7   163  37.0  29.9  75.0    0.00     0
2017-11-16 23:00   7.2   8.6   134  37.4  30.2  74.9    0.00     0
2017-11-16 22:00   5.2   6.6   137  38.3  30.4  72.8    0.00     0
2017-11-16 21:00   4.7   5.2   178  38.5  29.8  70.8    0.00     0
2017-11-16 20:00   5.6   6.8    61  38.8  29.8  69.7    0.00     0
2017-11-16 19:00   5.2   8.4   315  38.7  30.7  72.9    0.00     0
2017-11-16 18:00   7.6   9.1   338  38.7  30.9  73.5    0.00     0
2017-11-16 17:00   9.5  12.8   356  38.3  29.8  71.3    0.00     0
2017-11-16 16:00   7.6   8.2    17  38.1  29.6  71.0    0.00     0
2017-11-16 15:00  13.6  16.5   350  38.3  30.1  72.0    0.00     0
2017-11-16 14:00  13.0  14.8     6  37.9  28.5  68.4    0.00     0
2017-11-16 13:00  14.6  16.9   334  38.5  30.6  72.9    0.00     0
2017-11-16 12:00  15.2  16.9   323  38.3  31.2  75.3    0.00     0
2017-11-16 11:00  14.2  18.7   325  37.6  29.4  71.9    0.00     0
2017-11-16 10:00  18.5  20.8   313  37.4  29.5  72.7    0.00     0
2017-11-16 09:00  17.5  20.8   321  37.0  30.0  75.4    0.00     0
2017-11-16 08:00  20.2  23.9   311  36.3  28.2  72.1    0.00     0
2017-11-16 07:00  18.3  22.0   305  36.7  28.9  73.0    0.00     0
2017-11-16 06:00  20.6  23.7   297  37.0  29.8  74.7    0.00     0
2017-11-16 05:00  18.5  22.4   288  37.0  28.4  70.6    0.00     0
2017-11-16 04:00  23.1  24.9   282  36.9  28.2  70.7    0.00     0
2017-11-16 03:00  22.6  27.2   277  36.9  27.9  69.8    0.00     0
2017-11-16 02:00  26.2  30.3   283  37.6  28.2  68.6    0.00     0
2017-11-16 01:00  22.9  28.6   274  36.7  28.8  72.8    0.00     0
2017-11-16 00:00  23.1  26.4   277  36.3  28.8  73.8    0.00     0
2017-11-15 23:00  31.5  34.2   272  36.7  30.1  76.8    0.00     0
2017-11-15 22:00  29.4  31.9   265  38.5  31.2  74.8    0.00     0
2017-11-15 21:00  30.7  33.2   272  42.1  35.9  78.4    0.00     0
2017-11-15 20:00  30.3  32.7   250  47.3  37.5  68.5    0.00     0
2017-11-15 19:00  22.0  23.5   244  48.6  40.0  72.1    0.00     0
2017-11-15 18:00  19.2  20.4   243  48.9  42.9  79.6    0.00     0
2017-11-15 17:00  23.5  26.2   248  49.6  43.0  77.7    0.00     0
2017-11-15 16:00  17.9  19.2   239  48.6  48.0  97.9    0.00     0
2017-11-15 15:00  21.2  22.9   237  47.5  48.7 104.8    0.00     0
2017-11-15 14:00  21.8  23.7   226  46.9  48.1 104.6    0.00     0
2017-11-15 13:00  16.5  19.2   208  46.8  47.2 101.6    0.00     0
2017-11-15 12:00  13.6  15.4   188  45.3  46.2 103.5    0.00     0
2017-11-15 11:00  12.1  15.2   190  44.4  44.7 100.9    0.00     0
2017-11-15 10:00  15.2  17.3   166  43.0  43.5 101.9    0.00     0
2017-11-15 09:00  15.4  18.3   167  42.6  42.8 100.7    0.00     0
2017-11-15 08:00  14.0  17.1   169  42.6  39.9  89.9    0.00     0
2017-11-15 07:00  16.5  21.2   163  43.3  38.1  81.6    0.00     0
2017-11-15 06:00  13.6  17.7   156  43.3  37.8  80.7    0.00     0
2017-11-15 05:00  12.1  15.4   158  45.0  36.4  71.6    0.00     0
2017-11-15 04:00  12.6  17.1   160  44.6  36.0  71.4    0.00     0
2017-11-15 03:00  14.4  19.6   153  44.8  35.9  70.6    0.00     0
2017-11-15 02:00  14.6  19.2   156  45.5  34.6  65.2    0.00     0
2017-11-15 01:00  11.7  14.4   163  45.9  34.4  63.9    0.00     0
2017-11-15 00:00  12.2  16.7   155  46.0  34.0  62.4    0.00     0
2017-11-14 23:00  10.5  12.6   157  46.4  33.9  61.3    0.00     0
2017-11-14 22:00  11.9  15.0   148  46.6  33.8  60.6    0.00     0
2017-11-14 21:00   9.7  11.3   149  46.4  33.9  61.3    0.00     0
2017-11-14 20:00  10.9  13.8   139  46.2  34.1  62.3    0.00     0
2017-11-14 19:00  11.9  14.2   147  46.2  34.0  62.1    0.00     0
2017-11-14 18:00   9.9  12.1   141  46.6  34.9  63.5    0.00     0
2017-11-14 17:00   7.4   9.3   147  47.1  35.0  62.4    0.00     0
2017-11-14 16:00   9.1  12.4   155  48.0  34.2  58.4    0.00     0
2017-11-14 15:00   9.7  11.9   165  48.0  34.0  57.9    0.00     0
2017-11-14 14:00  11.3  12.8   166  47.7  33.3  57.2    0.00     0
2017-11-14 13:00   9.1  10.9   149  47.3  33.7  58.9    0.00     0
2017-11-14 12:00  13.0  16.1   154  45.1  33.5  63.4    0.00     0
2017-11-14 11:00  12.2  14.6   161  43.3  33.5  68.0    0.00     0
2017-11-14 10:00   9.7  11.3   160  41.5  33.5  72.8    0.00     0
2017-11-14 09:00  10.5  14.6   161  38.8  32.8  78.6    0.00     0
2017-11-14 08:00   7.2   8.4   148  35.6  33.8  93.2    0.00     0
2017-11-14 07:00   7.4   9.3   145  34.2  33.9  99.1    0.00     0
2017-11-14 06:00   3.9   5.1   146  34.9  34.5  98.6    0.00     0
2017-11-14 05:00  10.3  11.9   143  34.0  34.2 100.8    0.00     0
2017-11-14 04:00   7.6   8.4   125  33.4  34.1 102.6    0.00     0
2017-11-14 03:00   4.3   5.2   109  33.4  34.0 102.2    0.00     0
2017-11-14 02:00   7.6   9.1   143  34.3  33.8  97.7    0.00     0
2017-11-14 01:00   5.4   5.6   122  33.4  33.0  98.1    0.00     0
2017-11-14 00:00   2.5   2.9   121  35.4  32.1  87.4    0.00     0
2017-11-13 23:00   4.3   5.4   182  36.9  32.5  83.9    0.00     0
2017-11-13 22:00   5.4   7.2   183  37.2  32.5  83.0    0.00     0
2017-11-13 21:00   6.0   8.0   179  37.9  32.6  80.7    0.00     0
2017-11-13 20:00   4.7   5.8   168  38.5  32.7  79.6    0.00     0
2017-11-13 19:00   8.2   9.3   164  39.2  32.8  77.5    0.00     0
2017-11-13 18:00   3.9   4.3   137  39.7  33.3  77.4    0.00     0